sensor_id;sensor_type;location;lat;lon;timestamp;P1;durP1;ratioP1;P2;durP2;ratioP2
62654;SDS011;48717;55.556;37.816;2022-10-20T00:02:02;9.93;;;5.53;;
62654;SDS011;48717;55.556;37.816;2022-10-20T00:04:49;9.82;;;5.68;;
62654;SDS011;48717;55.556;37.816;2022-10-20T00:07:34;11.30;;;5.55;;
62654;SDS011;48717;55.556;37.816;2022-10-20T00:10:24;19.25;;;5.72;;
62654;SDS011;48717;55.556;37.816;2022-10-20T00:13:17;10.18;;;5.10;;
62654;SDS011;48717;55.556;37.816;2022-10-20T00:16:04;15.45;;;6.05;;
62654;SDS011;48717;55.556;37.816;2022-10-20T00:21:05;9.18;;;5.10;;
62654;SDS011;48717;55.556;37.816;2022-10-20T00:23:34;11.45;;;5.28;;
62654;SDS011;48717;55.556;37.816;2022-10-20T00:26:39;12.00;;;5.75;;
62654;SDS011;48717;55.556;37.816;2022-10-20T00:29:28;12.30;;;6.82;;
62654;SDS011;48717;55.556;37.816;2022-10-20T00:34:59;11.90;;;6.00;;
62654;SDS011;48717;55.556;37.816;2022-10-20T00:37:26;13.05;;;6.25;;
62654;SDS011;48717;55.556;37.816;2022-10-20T00:40:11;10.27;;;6.05;;
62654;SDS011;48717;55.556;37.816;2022-10-20T00:42:56;13.05;;;6.35;;
62654;SDS011;48717;55.556;37.816;2022-10-20T00:45:32;12.30;;;7.22;;
62654;SDS011;48717;55.556;37.816;2022-10-20T00:48:36;16.17;;;7.90;;
62654;SDS011;48717;55.556;37.816;2022-10-20T00:54:17;16.50;;;7.70;;
62654;SDS011;48717;55.556;37.816;2022-10-20T00:57:03;12.90;;;6.68;;
62654;SDS011;48717;55.556;37.816;2022-10-20T00:59:48;11.98;;;6.20;;
62654;SDS011;48717;55.556;37.816;2022-10-20T01:05:56;11.43;;;5.85;;
62654;SDS011;48717;55.556;37.816;2022-10-20T01:08:58;11.05;;;5.40;;
62654;SDS011;48717;55.556;37.816;2022-10-20T01:14:47;7.97;;;5.05;;
62654;SDS011;48717;55.556;37.816;2022-10-20T01:17:44;9.63;;;4.70;;
62654;SDS011;48717;55.556;37.816;2022-10-20T01:27:32;8.90;;;4.40;;
62654;SDS011;48717;55.556;37.816;2022-10-20T01:39:16;8.45;;;4.60;;
62654;SDS011;48717;55.556;37.816;2022-10-20T01:48:00;11.98;;;6.47;;
62654;SDS011;48717;55.556;37.816;2022-10-20T01:53:53;12.32;;;7.15;;
62654;SDS011;48717;55.556;37.816;2022-10-20T01:56:44;12.95;;;7.65;;
62654;SDS011;48717;55.556;37.816;2022-10-20T02:05:23;20.35;;;10.88;;
62654;SDS011;48717;55.556;37.816;2022-10-20T02:08:12;15.80;;;11.13;;
62654;SDS011;48717;55.556;37.816;2022-10-20T02:11:04;20.55;;;11.77;;
62654;SDS011;48717;55.556;37.816;2022-10-20T02:13:53;17.73;;;11.23;;
62654;SDS011;48717;55.556;37.816;2022-10-20T02:16:44;16.50;;;11.63;;
62654;SDS011;48717;55.556;37.816;2022-10-20T02:22:18;19.75;;;12.10;;
62654;SDS011;48717;55.556;37.816;2022-10-20T02:24:47;19.98;;;11.77;;
62654;SDS011;48717;55.556;37.816;2022-10-20T02:27:51;23.30;;;12.52;;
62654;SDS011;48717;55.556;37.816;2022-10-20T02:30:21;18.05;;;12.07;;
62654;SDS011;48717;55.556;37.816;2022-10-20T02:32:49;19.25;;;12.05;;
62654;SDS011;48717;55.556;37.816;2022-10-20T02:35:19;22.17;;;12.27;;
62654;SDS011;48717;55.556;37.816;2022-10-20T02:38:06;18.77;;;12.20;;
62654;SDS011;48717;55.556;37.816;2022-10-20T02:40:33;17.50;;;11.48;;
62654;SDS011;48717;55.556;37.816;2022-10-20T02:43:18;24.10;;;12.75;;
62654;SDS011;48717;55.556;37.816;2022-10-20T02:46:22;23.52;;;12.73;;
62654;SDS011;48717;55.556;37.816;2022-10-20T02:48:49;18.98;;;11.52;;
62654;SDS011;48717;55.556;37.816;2022-10-20T02:51:35;19.52;;;12.55;;
62654;SDS011;48717;55.556;37.816;2022-10-20T02:54:19;16.85;;;10.02;;
62654;SDS011;48717;55.556;37.816;2022-10-20T02:57:05;16.42;;;9.07;;
62654;SDS011;48717;55.556;37.816;2022-10-20T02:59:52;12.65;;;7.95;;
62654;SDS011;48717;55.556;37.816;2022-10-20T03:02:36;11.95;;;7.30;;
62654;SDS011;48717;55.556;37.816;2022-10-20T03:05:22;13.38;;;8.00;;
62654;SDS011;48717;55.556;37.816;2022-10-20T03:08:07;11.82;;;7.05;;
62654;SDS011;48717;55.556;37.816;2022-10-20T03:10:34;8.55;;;5.75;;
62654;SDS011;48717;55.556;37.816;2022-10-20T03:13:38;5.78;;;3.92;;
62654;SDS011;48717;55.556;37.816;2022-10-20T03:17:00;6.13;;;3.88;;
62654;SDS011;48717;55.556;37.816;2022-10-20T03:19:34;7.13;;;4.32;;
62654;SDS011;48717;55.556;37.816;2022-10-20T03:22:18;5.45;;;3.92;;
62654;SDS011;48717;55.556;37.816;2022-10-20T03:25:21;12.25;;;4.47;;
62654;SDS011;48717;55.556;37.816;2022-10-20T03:28:05;5.38;;;3.60;;
62654;SDS011;48717;55.556;37.816;2022-10-20T03:31:09;5.88;;;3.95;;
62654;SDS011;48717;55.556;37.816;2022-10-20T03:34:12;4.65;;;3.60;;
62654;SDS011;48717;55.556;37.816;2022-10-20T03:36:57;5.47;;;3.25;;
62654;SDS011;48717;55.556;37.816;2022-10-20T03:39:43;8.55;;;3.90;;
62654;SDS011;48717;55.556;37.816;2022-10-20T03:42:47;6.10;;;3.70;;
62654;SDS011;48717;55.556;37.816;2022-10-20T03:45:32;7.03;;;4.13;;
62654;SDS011;48717;55.556;37.816;2022-10-20T03:48:29;7.10;;;4.20;;
62654;SDS011;48717;55.556;37.816;2022-10-20T03:51:48;8.05;;;3.80;;
62654;SDS011;48717;55.556;37.816;2022-10-20T03:54:41;7.38;;;4.10;;
62654;SDS011;48717;55.556;37.816;2022-10-20T03:57:47;5.47;;;3.72;;
62654;SDS011;48717;55.556;37.816;2022-10-20T04:00:49;7.18;;;3.80;;
62654;SDS011;48717;55.556;37.816;2022-10-20T04:03:44;6.97;;;3.88;;
62654;SDS011;48717;55.556;37.816;2022-10-20T04:07:09;8.55;;;4.20;;
62654;SDS011;48717;55.556;37.816;2022-10-20T04:09:56;7.03;;;3.65;;
62654;SDS011;48717;55.556;37.816;2022-10-20T04:12:45;10.18;;;4.03;;
62654;SDS011;48717;55.556;37.816;2022-10-20T04:15:34;6.07;;;3.88;;
62654;SDS011;48717;55.556;37.816;2022-10-20T04:18:18;9.55;;;4.47;;
62654;SDS011;48717;55.556;37.816;2022-10-20T04:21:22;5.80;;;4.13;;
62654;SDS011;48717;55.556;37.816;2022-10-20T04:24:09;11.23;;;6.90;;
62654;SDS011;48717;55.556;37.816;2022-10-20T04:26:37;10.45;;;4.93;;
62654;SDS011;48717;55.556;37.816;2022-10-20T04:29:05;11.80;;;5.57;;
62654;SDS011;48717;55.556;37.816;2022-10-20T04:31:32;10.38;;;6.13;;
62654;SDS011;48717;55.556;37.816;2022-10-20T04:34:16;11.20;;;5.82;;
62654;SDS011;48717;55.556;37.816;2022-10-20T04:40:27;13.15;;;6.35;;
62654;SDS011;48717;55.556;37.816;2022-10-20T04:42:54;12.50;;;6.50;;
62654;SDS011;48717;55.556;37.816;2022-10-20T04:45:39;13.85;;;6.88;;
62654;SDS011;48717;55.556;37.816;2022-10-20T04:48:07;10.18;;;6.75;;
62654;SDS011;48717;55.556;37.816;2022-10-20T04:53:34;13.25;;;7.25;;
62654;SDS011;48717;55.556;37.816;2022-10-20T04:56:19;10.90;;;7.30;;
62654;SDS011;48717;55.556;37.816;2022-10-20T04:59:05;12.23;;;7.68;;
62654;SDS011;48717;55.556;37.816;2022-10-20T05:04:55;10.52;;;7.57;;
62654;SDS011;48717;55.556;37.816;2022-10-20T05:07:22;12.63;;;8.30;;
62654;SDS011;48717;55.556;37.816;2022-10-20T05:10:25;15.00;;;8.38;;
62654;SDS011;48717;55.556;37.816;2022-10-20T05:13:09;12.50;;;8.43;;
62654;SDS011;48717;55.556;37.816;2022-10-20T05:15:55;15.40;;;8.60;;
62654;SDS011;48717;55.556;37.816;2022-10-20T05:18:22;15.77;;;8.63;;
62654;SDS011;48717;55.556;37.816;2022-10-20T05:20:49;16.85;;;9.95;;
62654;SDS011;48717;55.556;37.816;2022-10-20T05:23:34;15.70;;;10.00;;
62654;SDS011;48717;55.556;37.816;2022-10-20T05:26:02;16.65;;;10.75;;
62654;SDS011;48717;55.556;37.816;2022-10-20T05:32:13;15.05;;;9.68;;
62654;SDS011;48717;55.556;37.816;2022-10-20T05:34:58;15.10;;;8.60;;
62654;SDS011;48717;55.556;37.816;2022-10-20T05:40:11;9.43;;;6.72;;
62654;SDS011;48717;55.556;37.816;2022-10-20T05:42:56;12.57;;;6.60;;
62654;SDS011;48717;55.556;37.816;2022-10-20T05:49:25;8.55;;;5.95;;
62654;SDS011;48717;55.556;37.816;2022-10-20T05:51:53;10.43;;;5.07;;
62654;SDS011;48717;55.556;37.816;2022-10-20T05:54:39;8.70;;;5.05;;
62654;SDS011;48717;55.556;37.816;2022-10-20T05:57:24;10.48;;;5.22;;
62654;SDS011;48717;55.556;37.816;2022-10-20T05:59:51;7.57;;;4.85;;
62654;SDS011;48717;55.556;37.816;2022-10-20T06:02:38;8.05;;;5.57;;
62654;SDS011;48717;55.556;37.816;2022-10-20T06:07:52;8.73;;;5.47;;
62654;SDS011;48717;55.556;37.816;2022-10-20T06:10:20;9.90;;;5.57;;
62654;SDS011;48717;55.556;37.816;2022-10-20T06:13:26;9.00;;;5.35;;
62654;SDS011;48717;55.556;37.816;2022-10-20T06:19:15;12.05;;;5.95;;
62654;SDS011;48717;55.556;37.816;2022-10-20T06:21:43;9.43;;;5.80;;
62654;SDS011;48717;55.556;37.816;2022-10-20T06:24:46;8.82;;;5.82;;
62654;SDS011;48717;55.556;37.816;2022-10-20T06:27:30;10.68;;;5.43;;
62654;SDS011;48717;55.556;37.816;2022-10-20T06:29:57;10.10;;;5.45;;
62654;SDS011;48717;55.556;37.816;2022-10-20T06:32:41;8.15;;;5.30;;
62654;SDS011;48717;55.556;37.816;2022-10-20T06:35:29;9.82;;;5.03;;
62654;SDS011;48717;55.556;37.816;2022-10-20T06:37:57;8.70;;;5.15;;
62654;SDS011;48717;55.556;37.816;2022-10-20T06:40:43;9.98;;;5.32;;
62654;SDS011;48717;55.556;37.816;2022-10-20T06:46:34;11.95;;;6.95;;
62654;SDS011;48717;55.556;37.816;2022-10-20T06:49:21;15.38;;;7.60;;
62654;SDS011;48717;55.556;37.816;2022-10-20T07:05:05;12.43;;;5.50;;
62654;SDS011;48717;55.556;37.816;2022-10-20T07:14:04;6.15;;;3.63;;
62654;SDS011;48717;55.556;37.816;2022-10-20T07:16:52;9.93;;;4.10;;
62654;SDS011;48717;55.556;37.816;2022-10-20T07:23:06;9.25;;;3.88;;
62654;SDS011;48717;55.556;37.816;2022-10-20T07:28:46;9.05;;;4.32;;
62654;SDS011;48717;55.556;37.816;2022-10-20T07:31:39;8.25;;;4.75;;
62654;SDS011;48717;55.556;37.816;2022-10-20T07:34:09;8.63;;;5.00;;
62654;SDS011;48717;55.556;37.816;2022-10-20T07:36:51;9.00;;;4.78;;
62654;SDS011;48717;55.556;37.816;2022-10-20T07:39:36;9.10;;;5.30;;
62654;SDS011;48717;55.556;37.816;2022-10-20T07:42:28;6.85;;;4.65;;
62654;SDS011;48717;55.556;37.816;2022-10-20T07:48:08;7.75;;;4.63;;
62654;SDS011;48717;55.556;37.816;2022-10-20T07:51:22;9.55;;;4.95;;
62654;SDS011;48717;55.556;37.816;2022-10-20T07:54:13;8.07;;;4.78;;
62654;SDS011;48717;55.556;37.816;2022-10-20T07:56:58;11.27;;;5.13;;
62654;SDS011;48717;55.556;37.816;2022-10-20T07:59:25;9.00;;;4.93;;
62654;SDS011;48717;55.556;37.816;2022-10-20T08:02:11;11.73;;;5.32;;
62654;SDS011;48717;55.556;37.816;2022-10-20T08:05:33;8.00;;;4.30;;
62654;SDS011;48717;55.556;37.816;2022-10-20T08:08:18;4.80;;;3.10;;
62654;SDS011;48717;55.556;37.816;2022-10-20T08:11:21;5.07;;;2.85;;
62654;SDS011;48717;55.556;37.816;2022-10-20T08:13:49;6.18;;;3.47;;
62654;SDS011;48717;55.556;37.816;2022-10-20T08:16:16;5.47;;;2.80;;
62654;SDS011;48717;55.556;37.816;2022-10-20T08:22:05;9.20;;;2.70;;
62654;SDS011;48717;55.556;37.816;2022-10-20T08:24:33;3.53;;;2.55;;
62654;SDS011;48717;55.556;37.816;2022-10-20T08:27:17;4.85;;;2.70;;
62654;SDS011;48717;55.556;37.816;2022-10-20T08:29:44;3.78;;;2.92;;
62654;SDS011;48717;55.556;37.816;2022-10-20T08:32:44;7.53;;;2.75;;
62654;SDS011;48717;55.556;37.816;2022-10-20T08:35:28;4.00;;;2.45;;
62654;SDS011;48717;55.556;37.816;2022-10-20T08:38:14;6.13;;;2.92;;
62654;SDS011;48717;55.556;37.816;2022-10-20T08:41:18;3.28;;;2.50;;
62654;SDS011;48717;55.556;37.816;2022-10-20T08:47:48;4.88;;;3.03;;
62654;SDS011;48717;55.556;37.816;2022-10-20T08:53:05;6.68;;;3.20;;
62654;SDS011;48717;55.556;37.816;2022-10-20T08:58:57;6.85;;;2.90;;
62654;SDS011;48717;55.556;37.816;2022-10-20T09:02:01;5.45;;;2.38;;
62654;SDS011;48717;55.556;37.816;2022-10-20T09:04:36;3.20;;;2.10;;
62654;SDS011;48717;55.556;37.816;2022-10-20T09:07:59;3.20;;;2.13;;
62654;SDS011;48717;55.556;37.816;2022-10-20T09:10:47;4.70;;;2.47;;
62654;SDS011;48717;55.556;37.816;2022-10-20T09:16:56;2.83;;;2.20;;
62654;SDS011;48717;55.556;37.816;2022-10-20T09:19:27;4.25;;;2.53;;
62654;SDS011;48717;55.556;37.816;2022-10-20T09:25:18;4.15;;;2.75;;
62654;SDS011;48717;55.556;37.816;2022-10-20T09:28:07;15.88;;;3.22;;
62654;SDS011;48717;55.556;37.816;2022-10-20T09:31:23;5.53;;;3.67;;
62654;SDS011;48717;55.556;37.816;2022-10-20T09:37:29;10.30;;;3.90;;
62654;SDS011;48717;55.556;37.816;2022-10-20T09:39:57;9.80;;;2.47;;
62654;SDS011;48717;55.556;37.816;2022-10-20T09:43:04;11.90;;;4.45;;
62654;SDS011;48717;55.556;37.816;2022-10-20T09:48:55;10.52;;;7.50;;
62654;SDS011;48717;55.556;37.816;2022-10-20T09:51:44;7.88;;;4.47;;
62654;SDS011;48717;55.556;37.816;2022-10-20T09:54:30;18.88;;;10.63;;
62654;SDS011;48717;55.556;37.816;2022-10-20T10:00:40;19.45;;;11.80;;
62654;SDS011;48717;55.556;37.816;2022-10-20T10:12:17;9.25;;;4.90;;
62654;SDS011;48717;55.556;37.816;2022-10-20T10:20:11;8.02;;;2.60;;
62654;SDS011;48717;55.556;37.816;2022-10-20T10:23:20;5.85;;;2.65;;
62654;SDS011;48717;55.556;37.816;2022-10-20T10:30:18;21.63;;;5.00;;
62654;SDS011;48717;55.556;37.816;2022-10-20T10:32:54;6.57;;;3.63;;
62654;SDS011;48717;55.556;37.816;2022-10-20T10:35:57;5.25;;;2.90;;
62654;SDS011;48717;55.556;37.816;2022-10-20T10:48:47;3.67;;;2.65;;
62654;SDS011;48717;55.556;37.816;2022-10-20T10:54:59;5.93;;;2.65;;
62654;SDS011;48717;55.556;37.816;2022-10-20T11:01:16;9.02;;;4.20;;
62654;SDS011;48717;55.556;37.816;2022-10-20T11:13:10;8.43;;;3.85;;
62654;SDS011;48717;55.556;37.816;2022-10-20T11:25:12;6.28;;;2.53;;
62654;SDS011;48717;55.556;37.816;2022-10-20T11:28:15;4.28;;;2.25;;
62654;SDS011;48717;55.556;37.816;2022-10-20T11:34:13;6.43;;;2.50;;
62654;SDS011;48717;55.556;37.816;2022-10-20T11:37:01;4.57;;;2.50;;
62654;SDS011;48717;55.556;37.816;2022-10-20T11:39:53;10.65;;;3.75;;
62654;SDS011;48717;55.556;37.816;2022-10-20T11:42:43;4.60;;;2.42;;
62654;SDS011;48717;55.556;37.816;2022-10-20T11:46:00;5.65;;;2.75;;
62654;SDS011;48717;55.556;37.816;2022-10-20T12:06:45;7.05;;;2.10;;
62654;SDS011;48717;55.556;37.816;2022-10-20T12:15:47;3.15;;;1.70;;
62654;SDS011;48717;55.556;37.816;2022-10-20T12:21:03;2.40;;;1.52;;
62654;SDS011;48717;55.556;37.816;2022-10-20T12:23:51;3.83;;;1.88;;
62654;SDS011;48717;55.556;37.816;2022-10-20T12:26:39;3.25;;;1.70;;
62654;SDS011;48717;55.556;37.816;2022-10-20T12:29:45;2.80;;;1.77;;
62654;SDS011;48717;55.556;37.816;2022-10-20T12:34:50;4.47;;;1.70;;
62654;SDS011;48717;55.556;37.816;2022-10-20T12:37:38;5.90;;;1.67;;
62654;SDS011;48717;55.556;37.816;2022-10-20T12:43:25;2.92;;;1.50;;
62654;SDS011;48717;55.556;37.816;2022-10-20T12:49:22;6.47;;;1.48;;
62654;SDS011;48717;55.556;37.816;2022-10-20T12:52:18;6.45;;;1.60;;
62654;SDS011;48717;55.556;37.816;2022-10-20T13:03:46;7.18;;;1.60;;
62654;SDS011;48717;55.556;37.816;2022-10-20T13:12:22;4.13;;;1.92;;
62654;SDS011;48717;55.556;37.816;2022-10-20T13:14:53;5.97;;;1.92;;
62654;SDS011;48717;55.556;37.816;2022-10-20T13:17:24;8.90;;;2.20;;
62654;SDS011;48717;55.556;37.816;2022-10-20T13:20:24;4.35;;;1.85;;
62654;SDS011;48717;55.556;37.816;2022-10-20T13:23:56;5.32;;;1.98;;
62654;SDS011;48717;55.556;37.816;2022-10-20T13:26:36;3.83;;;1.55;;
62654;SDS011;48717;55.556;37.816;2022-10-20T13:29:33;3.35;;;1.60;;
62654;SDS011;48717;55.556;37.816;2022-10-20T13:36:09;3.42;;;1.80;;
62654;SDS011;48717;55.556;37.816;2022-10-20T13:38:58;4.25;;;2.17;;
62654;SDS011;48717;55.556;37.816;2022-10-20T13:45:11;5.82;;;1.83;;
62654;SDS011;48717;55.556;37.816;2022-10-20T13:50:58;9.15;;;1.80;;
62654;SDS011;48717;55.556;37.816;2022-10-20T13:54:05;4.13;;;1.92;;
62654;SDS011;48717;55.556;37.816;2022-10-20T13:56:36;4.78;;;1.83;;
62654;SDS011;48717;55.556;37.816;2022-10-20T13:59:42;4.20;;;2.10;;
62654;SDS011;48717;55.556;37.816;2022-10-20T14:02:56;4.78;;;2.90;;
62654;SDS011;48717;55.556;37.816;2022-10-20T14:08:15;5.38;;;3.20;;
62654;SDS011;48717;55.556;37.816;2022-10-20T14:11:00;7.55;;;3.00;;
62654;SDS011;48717;55.556;37.816;2022-10-20T14:14:24;13.63;;;3.15;;
62654;SDS011;48717;55.556;37.816;2022-10-20T14:16:56;6.13;;;2.30;;
62654;SDS011;48717;55.556;37.816;2022-10-20T14:19:26;10.60;;;3.50;;
62654;SDS011;48717;55.556;37.816;2022-10-20T14:22:31;11.80;;;2.40;;
62654;SDS011;48717;55.556;37.816;2022-10-20T14:25:20;7.13;;;2.28;;
62654;SDS011;48717;55.556;37.816;2022-10-20T14:27:47;3.08;;;1.92;;
62654;SDS011;48717;55.556;37.816;2022-10-20T14:30:34;6.22;;;2.05;;
62654;SDS011;48717;55.556;37.816;2022-10-20T14:33:10;8.20;;;2.50;;
62654;SDS011;48717;55.556;37.816;2022-10-20T14:35:57;8.07;;;2.17;;
62654;SDS011;48717;55.556;37.816;2022-10-20T14:41:47;6.80;;;2.00;;
62654;SDS011;48717;55.556;37.816;2022-10-20T14:47:39;6.15;;;2.47;;
62654;SDS011;48717;55.556;37.816;2022-10-20T14:53:16;5.95;;;2.10;;
62654;SDS011;48717;55.556;37.816;2022-10-20T14:59:34;4.82;;;2.08;;
62654;SDS011;48717;55.556;37.816;2022-10-20T15:04:47;6.25;;;2.20;;
62654;SDS011;48717;55.556;37.816;2022-10-20T15:10:23;9.13;;;2.25;;
62654;SDS011;48717;55.556;37.816;2022-10-20T15:12:53;8.23;;;2.08;;
62654;SDS011;48717;55.556;37.816;2022-10-20T15:15:39;6.22;;;2.45;;
62654;SDS011;48717;55.556;37.816;2022-10-20T15:18:08;8.07;;;2.40;;
62654;SDS011;48717;55.556;37.816;2022-10-20T15:20:56;9.10;;;2.33;;
62654;SDS011;48717;55.556;37.816;2022-10-20T15:23:42;6.72;;;2.00;;
62654;SDS011;48717;55.556;37.816;2022-10-20T15:29:32;9.27;;;1.73;;
62654;SDS011;48717;55.556;37.816;2022-10-20T15:32:16;3.05;;;1.88;;
62654;SDS011;48717;55.556;37.816;2022-10-20T15:37:55;3.22;;;1.63;;
62654;SDS011;48717;55.556;37.816;2022-10-20T15:40:41;6.00;;;2.50;;
62654;SDS011;48717;55.556;37.816;2022-10-20T15:46:59;6.42;;;2.64;;
62654;SDS011;48717;55.556;37.816;2022-10-20T15:52:48;6.90;;;2.60;;
62654;SDS011;48717;55.556;37.816;2022-10-20T15:55:33;7.45;;;2.55;;
62654;SDS011;48717;55.556;37.816;2022-10-20T15:58:56;8.45;;;2.83;;
62654;SDS011;48717;55.556;37.816;2022-10-20T16:01:40;16.33;;;3.50;;
62654;SDS011;48717;55.556;37.816;2022-10-20T16:04:45;29.42;;;12.80;;
62654;SDS011;48717;55.556;37.816;2022-10-20T16:10:43;7.43;;;3.35;;
62654;SDS011;48717;55.556;37.816;2022-10-20T16:13:33;7.22;;;3.60;;
62654;SDS011;48717;55.556;37.816;2022-10-20T16:16:20;14.10;;;6.35;;
62654;SDS011;48717;55.556;37.816;2022-10-20T16:19:06;8.77;;;3.10;;
62654;SDS011;48717;55.556;37.816;2022-10-20T16:21:51;4.88;;;3.13;;
62654;SDS011;48717;55.556;37.816;2022-10-20T16:24:18;8.10;;;3.28;;
62654;SDS011;48717;55.556;37.816;2022-10-20T16:26:45;10.38;;;3.00;;
62654;SDS011;48717;55.556;37.816;2022-10-20T16:30:08;7.15;;;3.20;;
62654;SDS011;48717;55.556;37.816;2022-10-20T16:32:54;6.20;;;2.42;;
62654;SDS011;48717;55.556;37.816;2022-10-20T16:35:21;5.32;;;3.60;;
62654;SDS011;48717;55.556;37.816;2022-10-20T16:44:15;6.43;;;3.20;;
62654;SDS011;48717;55.556;37.816;2022-10-20T16:46:42;6.10;;;3.22;;
62654;SDS011;48717;55.556;37.816;2022-10-20T16:49:29;5.85;;;3.60;;
62654;SDS011;48717;55.556;37.816;2022-10-20T16:55:39;8.05;;;3.28;;
62654;SDS011;48717;55.556;37.816;2022-10-20T17:01:11;6.43;;;3.30;;
62654;SDS011;48717;55.556;37.816;2022-10-20T17:06:43;5.70;;;3.30;;
62654;SDS011;48717;55.556;37.816;2022-10-20T17:09:10;7.82;;;3.47;;
62654;SDS011;48717;55.556;37.816;2022-10-20T17:11:37;5.13;;;3.75;;
62654;SDS011;48717;55.556;37.816;2022-10-20T17:14:23;5.85;;;3.53;;
62654;SDS011;48717;55.556;37.816;2022-10-20T17:17:07;7.70;;;3.38;;
62654;SDS011;48717;55.556;37.816;2022-10-20T17:19:34;5.50;;;3.58;;
62654;SDS011;48717;55.556;37.816;2022-10-20T17:22:19;6.75;;;4.13;;
62654;SDS011;48717;55.556;37.816;2022-10-20T17:25:04;6.57;;;3.88;;
62654;SDS011;48717;55.556;37.816;2022-10-20T17:28:08;6.93;;;3.92;;
62654;SDS011;48717;55.556;37.816;2022-10-20T17:30:39;5.82;;;4.03;;
62654;SDS011;48717;55.556;37.816;2022-10-20T17:33:42;5.78;;;4.00;;
62654;SDS011;48717;55.556;37.816;2022-10-20T17:39:15;7.30;;;4.25;;
62654;SDS011;48717;55.556;37.816;2022-10-20T17:44:47;9.30;;;4.70;;
62654;SDS011;48717;55.556;37.816;2022-10-20T17:47:33;9.65;;;4.40;;
62654;SDS011;48717;55.556;37.816;2022-10-20T17:50:36;5.85;;;4.22;;
62654;SDS011;48717;55.556;37.816;2022-10-20T17:53:21;8.93;;;4.60;;
62654;SDS011;48717;55.556;37.816;2022-10-20T17:56:12;6.97;;;4.57;;
62654;SDS011;48717;55.556;37.816;2022-10-20T17:58:41;7.63;;;4.60;;
62654;SDS011;48717;55.556;37.816;2022-10-20T18:04:05;8.35;;;4.80;;
62654;SDS011;48717;55.556;37.816;2022-10-20T18:09:40;6.63;;;4.65;;
62654;SDS011;48717;55.556;37.816;2022-10-20T18:15:50;7.72;;;4.78;;
62654;SDS011;48717;55.556;37.816;2022-10-20T18:21:26;6.97;;;4.78;;
62654;SDS011;48717;55.556;37.816;2022-10-20T18:23:55;7.80;;;4.78;;
62654;SDS011;48717;55.556;37.816;2022-10-20T18:29:12;8.05;;;4.93;;
62654;SDS011;48717;55.556;37.816;2022-10-20T18:35:21;7.63;;;5.00;;
62654;SDS011;48717;55.556;37.816;2022-10-20T18:38:07;6.57;;;4.65;;
62654;SDS011;48717;55.556;37.816;2022-10-20T18:40:34;7.28;;;4.75;;
62654;SDS011;48717;55.556;37.816;2022-10-20T18:43:37;8.02;;;4.72;;
62654;SDS011;48717;55.556;37.816;2022-10-20T18:46:22;7.28;;;4.65;;
62654;SDS011;48717;55.556;37.816;2022-10-20T18:48:50;7.18;;;4.78;;
62654;SDS011;48717;55.556;37.816;2022-10-20T18:51:35;8.05;;;4.97;;
62654;SDS011;48717;55.556;37.816;2022-10-20T18:54:32;17.05;;;8.18;;
62654;SDS011;48717;55.556;37.816;2022-10-20T19:02:49;10.38;;;5.43;;
62654;SDS011;48717;55.556;37.816;2022-10-20T19:08:11;11.35;;;5.40;;
62654;SDS011;48717;55.556;37.816;2022-10-20T19:10:44;7.85;;;4.88;;
62654;SDS011;48717;55.556;37.816;2022-10-20T19:13:26;8.07;;;4.97;;
62654;SDS011;48717;55.556;37.816;2022-10-20T19:19:09;7.22;;;4.65;;
62654;SDS011;48717;55.556;37.816;2022-10-20T19:25:08;7.45;;;4.80;;
62654;SDS011;48717;55.556;37.816;2022-10-20T19:28:01;10.27;;;6.20;;
62654;SDS011;48717;55.556;37.816;2022-10-20T19:37:00;10.70;;;5.55;;
62654;SDS011;48717;55.556;37.816;2022-10-20T19:39:45;9.02;;;5.65;;
62654;SDS011;48717;55.556;37.816;2022-10-20T19:46:14;10.05;;;5.50;;
62654;SDS011;48717;55.556;37.816;2022-10-20T19:48:49;9.18;;;4.43;;
62654;SDS011;48717;55.556;37.816;2022-10-20T19:51:26;10.07;;;4.47;;
62654;SDS011;48717;55.556;37.816;2022-10-20T19:53:53;5.75;;;3.85;;
62654;SDS011;48717;55.556;37.816;2022-10-20T19:56:40;6.70;;;3.70;;
62654;SDS011;48717;55.556;37.816;2022-10-20T19:59:26;8.23;;;3.95;;
62654;SDS011;48717;55.556;37.816;2022-10-20T20:01:53;5.13;;;3.78;;
62654;SDS011;48717;55.556;37.816;2022-10-20T20:04:39;6.43;;;3.58;;
62654;SDS011;48717;55.556;37.816;2022-10-20T20:07:25;8.05;;;3.83;;
62654;SDS011;48717;55.556;37.816;2022-10-20T20:10:11;8.75;;;4.00;;
62654;SDS011;48717;55.556;37.816;2022-10-20T20:16:17;8.85;;;4.97;;
62654;SDS011;48717;55.556;37.816;2022-10-20T20:19:03;9.18;;;4.20;;
62654;SDS011;48717;55.556;37.816;2022-10-20T20:22:08;6.47;;;4.20;;
62654;SDS011;48717;55.556;37.816;2022-10-20T20:24:53;7.15;;;4.32;;
62654;SDS011;48717;55.556;37.816;2022-10-20T20:27:21;10.90;;;4.50;;
62654;SDS011;48717;55.556;37.816;2022-10-20T20:33:49;8.23;;;4.35;;
62654;SDS011;48717;55.556;37.816;2022-10-20T20:36:17;8.88;;;5.15;;
62654;SDS011;48717;55.556;37.816;2022-10-20T20:38:45;9.50;;;4.97;;
62654;SDS011;48717;55.556;37.816;2022-10-20T20:41:48;9.27;;;4.35;;
62654;SDS011;48717;55.556;37.816;2022-10-20T20:44:52;7.85;;;4.80;;
62654;SDS011;48717;55.556;37.816;2022-10-20T20:50:59;7.97;;;4.72;;
62654;SDS011;48717;55.556;37.816;2022-10-20T20:53:26;8.40;;;5.00;;
62654;SDS011;48717;55.556;37.816;2022-10-20T20:56:12;11.50;;;5.05;;
62654;SDS011;48717;55.556;37.816;2022-10-20T20:58:59;8.45;;;5.20;;
62654;SDS011;48717;55.556;37.816;2022-10-20T21:01:43;9.23;;;5.72;;
62654;SDS011;48717;55.556;37.816;2022-10-20T21:04:29;9.80;;;5.60;;
62654;SDS011;48717;55.556;37.816;2022-10-20T21:09:59;9.38;;;5.65;;
62654;SDS011;48717;55.556;37.816;2022-10-20T21:12:28;10.70;;;6.35;;
62654;SDS011;48717;55.556;37.816;2022-10-20T21:15:13;7.55;;;5.50;;
62654;SDS011;48717;55.556;37.816;2022-10-20T21:17:58;10.95;;;5.32;;
62654;SDS011;48717;55.556;37.816;2022-10-20T21:20:26;9.77;;;5.07;;
62654;SDS011;48717;55.556;37.816;2022-10-20T21:23:11;6.28;;;4.38;;
62654;SDS011;48717;55.556;37.816;2022-10-20T21:25:55;7.05;;;3.92;;
62654;SDS011;48717;55.556;37.816;2022-10-20T21:28:41;6.28;;;4.03;;
62654;SDS011;48717;55.556;37.816;2022-10-20T21:31:29;5.75;;;3.63;;
62654;SDS011;48717;55.556;37.816;2022-10-20T21:34:17;5.25;;;3.22;;
62654;SDS011;48717;55.556;37.816;2022-10-20T21:36:44;4.80;;;3.17;;
62654;SDS011;48717;55.556;37.816;2022-10-20T21:39:28;4.85;;;3.30;;
62654;SDS011;48717;55.556;37.816;2022-10-20T21:42:13;7.75;;;3.70;;
62654;SDS011;48717;55.556;37.816;2022-10-20T21:44:40;7.57;;;3.50;;
62654;SDS011;48717;55.556;37.816;2022-10-20T21:47:25;5.38;;;3.50;;
62654;SDS011;48717;55.556;37.816;2022-10-20T21:52:55;4.97;;;3.50;;
62654;SDS011;48717;55.556;37.816;2022-10-20T21:55:46;6.10;;;4.07;;
62654;SDS011;48717;55.556;37.816;2022-10-20T21:58:30;5.00;;;3.63;;
62654;SDS011;48717;55.556;37.816;2022-10-20T22:01:18;9.43;;;3.53;;
62654;SDS011;48717;55.556;37.816;2022-10-20T22:04:26;6.70;;;4.00;;
62654;SDS011;48717;55.556;37.816;2022-10-20T22:07:14;4.88;;;3.72;;
62654;SDS011;48717;55.556;37.816;2022-10-20T22:09:41;5.35;;;3.78;;
62654;SDS011;48717;55.556;37.816;2022-10-20T22:12:08;5.25;;;3.47;;
62654;SDS011;48717;55.556;37.816;2022-10-20T22:14:35;5.13;;;4.00;;
62654;SDS011;48717;55.556;37.816;2022-10-20T22:17:02;6.20;;;3.78;;
62654;SDS011;48717;55.556;37.816;2022-10-20T22:19:29;7.25;;;3.60;;
62654;SDS011;48717;55.556;37.816;2022-10-20T22:21:56;6.95;;;4.05;;
62654;SDS011;48717;55.556;37.816;2022-10-20T22:24:25;5.75;;;3.78;;